Admiralengracht — PCDE — position and weather

sailwx.info

Track history (hours):
 
Tides and Currents Weather Stations Pressure Air Temp Water Temp Dewpoint Dewpoint Depression Visibility Wind Speed Wind Dir Waves Ship Positions

Admiralengracht

Last reported at 2020-Jun-06 13:55 UTC. Time now 2020-Jun-06 14:12 UTC.
Position N 53°28' E 006°49'.

Length 130 m; beam 19 m; draft 9 m.

Type: Ship. MMSI: 244170283.

Date/timePositionNaut miles runAvg speedWind from/ knotsBaromVisibWave heightAir tempDewpointWater temp
2020-Jun-06 13:55N 53°28' E 006°49'0 0.0
2020-Jun-06 13:29N 53°28' E 006°49'0 0.0
2020-Jun-06 12:56N 53°28' E 006°49'0 0.0
2020-Jun-06 12:29N 53°28' E 006°49'0 0.0
2020-Jun-06 11:00N 53°28' E 006°49'0 0.0
2020-Jun-06 10:30N 53°28' E 006°49'0 0.0
2020-Jun-06 07:59N 53°28' E 006°49'0 0.0
2020-Jun-06 07:30N 53°28' E 006°49'0 0.0
2020-Jun-06 04:29N 53°28' E 006°49'0 0.0
2020-Jun-06 03:29N 53°28' E 006°49'0 0.0
2020-Jun-06 02:57N 53°28' E 006°49'0 0.0
2020-Jun-06 02:27N 53°28' E 006°49'0 0.0
2020-Jun-06 00:55N 53°28' E 006°49'0 0.0
2020-Jun-06 00:25N 53°28' E 006°49'0 0.0
2020-Jun-05 21:54N 53°28' E 006°49'0 0.0
2020-Jun-05 21:30N 53°28' E 006°49'0 0.0
2020-Jun-05 18:29N 53°28' E 006°49'0 0.0
2020-Jun-05 18:00N 53°28' E 006°49'0 0.0
2020-Jun-05 17:27N 53°28' E 006°49'0 0.0
2020-Jun-05 15:58N 53°28' E 006°49'0 0.0
2020-Jun-05 13:59N 53°28' E 006°49'0 0.0
2020-Jun-05 12:30N 53°28' E 006°49'0 0.0
2020-Jun-05 11:28N 53°28' E 006°49'0 0.0
2020-Jun-05 06:28N 53°28' E 006°49'0 0.0
2020-Jun-05 05:53N 53°28' E 006°49'0 0.0
2020-Jun-05 04:59N 53°28' E 006°49'0 0.0
2020-Jun-05 00:29N 53°28' E 006°49'0 0.0
2020-Jun-04 23:30N 53°28' E 006°49'0 0.0
2020-Jun-04 20:56N 53°28' E 006°49'0 0.0
2020-Jun-04 19:27N 53°28' E 006°49'0 0.0
2020-Jun-04 18:15N 53°28' E 006°49'0 0.0
2020-Jun-04 16:23N 53°28' E 006°49'0 0.0
2020-Jun-04 13:28N 53°28' E 006°49'0 0.0
2020-Jun-04 12:28N 53°28' E 006°49'0 0.0
2020-Jun-04 09:24N 53°28' E 006°49'0 0.0
2020-Jun-04 07:26N 53°28' E 006°49'0 0.0
2020-Jun-04 06:29N 53°28' E 006°49'0 0.0
2020-Jun-04 05:30N 53°28' E 006°49'0 0.0
2020-Jun-04 04:28N 53°28' E 006°49'20 3.1
2020-Jun-03 22:00N 53°47' E 006°56'10 9.7
2020-Jun-03 21:00N 53°57' E 006°57'1 0.8
2020-Jun-03 19:03N 53°58' E 006°56'0 0.0
2020-Jun-03 18:28N 53°58' E 006°56'0 0.1
2020-Jun-03 13:19N 53°57' E 006°56'0 0.0
2020-Jun-03 06:29N 53°57' E 006°56'9 3.1
2020-Jun-03 03:30N 53°48' E 007°01'1010.7
2020-Jun-03 02:37N 53°44' E 006°46'17 4.6
2020-Jun-02 23:00N 53°28' E 006°49'0 0.0
2020-Jun-02 21:52N 53°28' E 006°49'0 0.0
2020-Jun-02 21:11N 53°28' E 006°49'0 0.0
2020-Jun-02 20:56N 53°28' E 006°49'0 0.0
2020-Jun-02 19:56N 53°28' E 006°49'0 0.0
2020-Jun-02 17:28N 53°28' E 006°49'0 0.0
2020-Jun-02 14:51N 53°28' E 006°49'0 0.0
2020-Jun-02 13:28N 53°28' E 006°49'0 0.0
2020-Jun-02 08:07N 53°28' E 006°49'0 0.0
2020-Jun-02 04:54N 53°28' E 006°49'0 0.0
2020-Jun-02 02:08N 53°28' E 006°49'0 0.0
2020-Jun-02 01:12N 53°28' E 006°49'0 0.0
2020-Jun-02 00:27N 53°28' E 006°49'0 0.0
2020-Jun-01 23:58N 53°28' E 006°49'0 0.0
2020-Jun-01 23:19N 53°28' E 006°49'0 0.0
2020-Jun-01 21:59N 53°28' E 006°49'0 0.0
2020-Jun-01 15:51N 53°28' E 006°49'0 0.0
2020-Jun-01 15:27N 53°28' E 006°49'0 0.0
2020-Jun-01 12:53N 53°28' E 006°49'0 0.0
2020-Jun-01 08:23N 53°28' E 006°49'0 0.0
2020-Jun-01 04:47N 53°28' E 006°49'0 0.0
2020-Jun-01 04:29N 53°28' E 006°49'1 0.4
2020-Jun-01 03:01N 53°27' E 006°50'3 5.6
2020-Jun-01 02:30N 53°30' E 006°48'4 8.7
2020-Jun-01 02:00N 53°33' E 006°42'10 3.0
2020-May-31 22:49N 53°42' E 006°38'16 5.6
2020-May-31 19:54N 53°53' E 006°58'2 0.8
2020-May-31 17:58N 53°55' E 006°58'1 1.3
2020-May-31 17:25N 53°55' E 006°57'2 1.3
2020-May-31 15:55N 53°57' E 006°56'0 0.8
2020-May-31 15:20N 53°58' E 006°56'1 0.6
2020-May-31 14:28N 53°58' E 006°56'0 0.2
2020-May-31 13:30N 53°58' E 006°56'0 0.5
2020-May-31 12:26N 53°58' E 006°55'1 0.7
2020-May-31 10:59N 53°58' E 006°57'1 0.4
2020-May-31 09:30N 53°58' E 006°57'0 0.1
2020-May-31 07:29N 53°59' E 006°57'1 0.6
2020-May-31 06:30N 53°58' E 006°57'0 0.1
2020-May-31 04:00N 53°58' E 006°56'0 0.4
2020-May-31 03:01N 53°58' E 006°57'1 0.4
2020-May-31 01:01N 53°59' E 006°56'0 0.1
2020-May-30 22:31N 53°58' E 006°56'0 0.1
2020-May-30 21:30N 53°58' E 006°56'1 0.6
2020-May-30 20:30N 53°58' E 006°56'1 1.1
2020-May-30 19:25N 53°58' E 006°54'1 0.7
2020-May-30 18:29N 53°58' E 006°55'0 0.1
2020-May-30 16:30N 53°57' E 006°55'1 0.4
2020-May-30 14:27N 53°58' E 006°55'0 0.0
2020-May-30 07:27N 53°58' E 006°55'1 0.4
2020-May-30 05:29N 53°59' E 006°55'1 0.3
2020-May-30 03:00N 53°59' E 006°56'0 0.7
2020-May-30 02:27N 53°59' E 006°55'0 0.1
2020-May-29 23:00N 53°59' E 006°55'1 0.2
2020-May-29 19:23N 53°59' E 006°56'0 0.1
2020-May-29 18:29N 53°59' E 006°56'1 0.9
2020-May-29 17:30N 53°59' E 006°55'1 0.5
2020-May-29 16:00N 53°59' E 006°56'1 0.3
2020-May-29 14:00N 53°59' E 006°55'0 0.0
2020-May-29 10:55N 53°59' E 006°55'1 0.1
2020-May-29 04:59N 53°59' E 006°56'2 0.1
2020-May-28 04:38N 53°57' E 006°55'0 0.1
2020-May-27 22:08N 53°57' E 006°54'5 0.9
2020-May-27 16:56N 53°54' E 006°60'0 0.2
2020-May-27 15:29N 53°54' E 006°59'  
Track history (hours):
 
Tides and Currents Weather Stations Pressure Air Temp Water Temp Dewpoint Dewpoint Depression Visibility Wind Speed Wind Dir Waves Ship Positions

Admiralengracht

Last reported at 2020-Jun-06 13:55 UTC. Time now 2020-Jun-06 14:12 UTC.
Position N 53°28' E 006°49'.

Length 130 m; beam 19 m; draft 9 m.

Type: Ship. MMSI: 244170283.

Date/timePositionNaut miles runAvg speedWind from/ knotsBaromVisibWave heightAir tempDewpointWater temp
2020-Jun-06 13:55N 53°28' E 006°49'0 0.0
2020-Jun-06 13:29N 53°28' E 006°49'0 0.0
2020-Jun-06 12:56N 53°28' E 006°49'0 0.0
2020-Jun-06 12:29N 53°28' E 006°49'0 0.0
2020-Jun-06 11:00N 53°28' E 006°49'0 0.0
2020-Jun-06 10:30N 53°28' E 006°49'0 0.0
2020-Jun-06 07:59N 53°28' E 006°49'0 0.0
2020-Jun-06 07:30N 53°28' E 006°49'0 0.0
2020-Jun-06 04:29N 53°28' E 006°49'0 0.0
2020-Jun-06 03:29N 53°28' E 006°49'0 0.0
2020-Jun-06 02:57N 53°28' E 006°49'0 0.0
2020-Jun-06 02:27N 53°28' E 006°49'0 0.0
2020-Jun-06 00:55N 53°28' E 006°49'0 0.0
2020-Jun-06 00:25N 53°28' E 006°49'0 0.0
2020-Jun-05 21:54N 53°28' E 006°49'0 0.0
2020-Jun-05 21:30N 53°28' E 006°49'0 0.0
2020-Jun-05 18:29N 53°28' E 006°49'0 0.0
2020-Jun-05 18:00N 53°28' E 006°49'0 0.0
2020-Jun-05 17:27N 53°28' E 006°49'0 0.0
2020-Jun-05 15:58N 53°28' E 006°49'0 0.0
2020-Jun-05 13:59N 53°28' E 006°49'0 0.0
2020-Jun-05 12:30N 53°28' E 006°49'0 0.0
2020-Jun-05 11:28N 53°28' E 006°49'0 0.0
2020-Jun-05 06:28N 53°28' E 006°49'0 0.0
2020-Jun-05 05:53N 53°28' E 006°49'0 0.0
2020-Jun-05 04:59N 53°28' E 006°49'0 0.0
2020-Jun-05 00:29N 53°28' E 006°49'0 0.0
2020-Jun-04 23:30N 53°28' E 006°49'0 0.0
2020-Jun-04 20:56N 53°28' E 006°49'0 0.0
2020-Jun-04 19:27N 53°28' E 006°49'0 0.0
2020-Jun-04 18:15N 53°28' E 006°49'0 0.0
2020-Jun-04 16:23N 53°28' E 006°49'0 0.0
2020-Jun-04 13:28N 53°28' E 006°49'0 0.0
2020-Jun-04 12:28N 53°28' E 006°49'0 0.0
2020-Jun-04 09:24N 53°28' E 006°49'0 0.0
2020-Jun-04 07:26N 53°28' E 006°49'0 0.0
2020-Jun-04 06:29N 53°28' E 006°49'0 0.0
2020-Jun-04 05:30N 53°28' E 006°49'0 0.0
2020-Jun-04 04:28N 53°28' E 006°49'20 3.1
2020-Jun-03 22:00N 53°47' E 006°56'10 9.7
2020-Jun-03 21:00N 53°57' E 006°57'1 0.8
2020-Jun-03 19:03N 53°58' E 006°56'0 0.0
2020-Jun-03 18:28N 53°58' E 006°56'0 0.1
2020-Jun-03 13:19N 53°57' E 006°56'0 0.0
2020-Jun-03 06:29N 53°57' E 006°56'9 3.1
2020-Jun-03 03:30N 53°48' E 007°01'1010.7
2020-Jun-03 02:37N 53°44' E 006°46'17 4.6
2020-Jun-02 23:00N 53°28' E 006°49'0 0.0
2020-Jun-02 21:52N 53°28' E 006°49'0 0.0
2020-Jun-02 21:11N 53°28' E 006°49'0 0.0
2020-Jun-02 20:56N 53°28' E 006°49'0 0.0
2020-Jun-02 19:56N 53°28' E 006°49'0 0.0
2020-Jun-02 17:28N 53°28' E 006°49'0 0.0
2020-Jun-02 14:51N 53°28' E 006°49'0 0.0
2020-Jun-02 13:28N 53°28' E 006°49'0 0.0
2020-Jun-02 08:07N 53°28' E 006°49'0 0.0
2020-Jun-02 04:54N 53°28' E 006°49'0 0.0
2020-Jun-02 02:08N 53°28' E 006°49'0 0.0
2020-Jun-02 01:12N 53°28' E 006°49'0 0.0
2020-Jun-02 00:27N 53°28' E 006°49'0 0.0
2020-Jun-01 23:58N 53°28' E 006°49'0 0.0
2020-Jun-01 23:19N 53°28' E 006°49'0 0.0
2020-Jun-01 21:59N 53°28' E 006°49'0 0.0
2020-Jun-01 15:51N 53°28' E 006°49'0 0.0
2020-Jun-01 15:27N 53°28' E 006°49'0 0.0
2020-Jun-01 12:53N 53°28' E 006°49'0 0.0
2020-Jun-01 08:23N 53°28' E 006°49'0 0.0
2020-Jun-01 04:47N 53°28' E 006°49'0 0.0
2020-Jun-01 04:29N 53°28' E 006°49'1 0.4
2020-Jun-01 03:01N 53°27' E 006°50'3 5.6
2020-Jun-01 02:30N 53°30' E 006°48'4 8.7
2020-Jun-01 02:00N 53°33' E 006°42'10 3.0
2020-May-31 22:49N 53°42' E 006°38'16 5.6
2020-May-31 19:54N 53°53' E 006°58'2 0.8
2020-May-31 17:58N 53°55' E 006°58'1 1.3
2020-May-31 17:25N 53°55' E 006°57'2 1.3
2020-May-31 15:55N 53°57' E 006°56'0 0.8
2020-May-31 15:20N 53°58' E 006°56'1 0.6
2020-May-31 14:28N 53°58' E 006°56'0 0.2
2020-May-31 13:30N 53°58' E 006°56'0 0.5
2020-May-31 12:26N 53°58' E 006°55'1 0.7
2020-May-31 10:59N 53°58' E 006°57'1 0.4
2020-May-31 09:30N 53°58' E 006°57'0 0.1
2020-May-31 07:29N 53°59' E 006°57'1 0.6
2020-May-31 06:30N 53°58' E 006°57'0 0.1
2020-May-31 04:00N 53°58' E 006°56'0 0.4
2020-May-31 03:01N 53°58' E 006°57'1 0.4
2020-May-31 01:01N 53°59' E 006°56'0 0.1
2020-May-30 22:31N 53°58' E 006°56'0 0.1
2020-May-30 21:30N 53°58' E 006°56'1 0.6
2020-May-30 20:30N 53°58' E 006°56'1 1.1
2020-May-30 19:25N 53°58' E 006°54'1 0.7
2020-May-30 18:29N 53°58' E 006°55'0 0.1
2020-May-30 16:30N 53°57' E 006°55'1 0.4
2020-May-30 14:27N 53°58' E 006°55'0 0.0
2020-May-30 07:27N 53°58' E 006°55'1 0.4
2020-May-30 05:29N 53°59' E 006°55'1 0.3
2020-May-30 03:00N 53°59' E 006°56'0 0.7
2020-May-30 02:27N 53°59' E 006°55'0 0.1
2020-May-29 23:00N 53°59' E 006°55'1 0.2
2020-May-29 19:23N 53°59' E 006°56'0 0.1
2020-May-29 18:29N 53°59' E 006°56'1 0.9
2020-May-29 17:30N 53°59' E 006°55'1 0.5
2020-May-29 16:00N 53°59' E 006°56'1 0.3
2020-May-29 14:00N 53°59' E 006°55'0 0.0
2020-May-29 10:55N 53°59' E 006°55'1 0.1
2020-May-29 04:59N 53°59' E 006°56'2 0.1
2020-May-28 04:38N 53°57' E 006°55'0 0.1
2020-May-27 22:08N 53°57' E 006°54'5 0.9
2020-May-27 16:56N 53°54' E 006°60'0 0.2
2020-May-27 15:29N 53°54' E 006°59'  

Dump ship's entire track history